createdAt,value
2022-11-16T00:02:19.874Z,24.30
2022-11-16T00:04:46.486Z,34.70
2022-11-16T00:07:13.295Z,26.20
2022-11-16T00:09:39.869Z,31.30
2022-11-16T00:12:09.149Z,26.70
2022-11-16T00:14:36.694Z,29.40
2022-11-16T00:17:04.154Z,28.50
2022-11-16T00:19:31.605Z,29.60
2022-11-16T00:21:58.366Z,30.30
2022-11-16T00:24:25.017Z,27.50
2022-11-16T00:26:54.447Z,29.20
2022-11-16T00:29:25.888Z,33.90
2022-11-16T00:31:53.320Z,39.30
2022-11-16T00:34:21.981Z,32.60
2022-11-16T00:36:49.044Z,30.80
2022-11-16T00:39:16.974Z,52.30
2022-11-16T00:41:46.248Z,52.20
2022-11-16T00:44:13.338Z,43.90
2022-11-16T00:46:40.395Z,26.30
2022-11-16T00:49:07.857Z,22.10
2022-11-16T00:51:35.246Z,23.90
2022-11-16T00:54:03.396Z,28.90
2022-11-16T00:56:31.263Z,33.20
2022-11-16T00:58:58.054Z,35.80
2022-11-16T01:01:25.076Z,38.30
2022-11-16T01:03:51.860Z,30.60
2022-11-16T01:06:19.875Z,30.00
2022-11-16T01:08:47.287Z,25.70
2022-11-16T01:11:34.591Z,28.90
2022-11-16T01:14:03.890Z,27.60
2022-11-16T01:16:31.243Z,27.40
2022-11-16T01:18:58.447Z,29.60
2022-11-16T01:21:25.679Z,26.80
2022-11-16T01:23:52.259Z,27.40
2022-11-16T01:26:19.054Z,23.10
2022-11-16T01:28:45.960Z,27.50
2022-11-16T01:31:13.255Z,25.40
2022-11-16T01:33:40.444Z,23.40
2022-11-16T01:36:16.985Z,33.30
2022-11-16T01:38:45.834Z,44.20
2022-11-16T01:41:22.638Z,48.70
2022-11-16T01:43:58.853Z,38.70
2022-11-16T01:46:31.064Z,30.70
2022-11-16T01:49:04.866Z,28.80
2022-11-16T01:51:33.319Z,28.60
2022-11-16T01:54:03.976Z,22.50
2022-11-16T01:56:32.848Z,27.00
2022-11-16T01:59:20.916Z,27.40
2022-11-16T02:01:49.064Z,20.50
2022-11-16T02:04:17.353Z,22.90
2022-11-16T02:07:25.842Z,24.70
2022-11-16T02:10:18.496Z,31.60
2022-11-16T02:13:01.787Z,24.00
2022-11-16T02:15:41.787Z,27.70
2022-11-16T02:18:33.446Z,20.90
2022-11-16T02:21:11.770Z,19.30
2022-11-16T02:24:21.428Z,16.50
2022-11-16T02:27:14.928Z,19.40
2022-11-16T02:29:49.801Z,14.90
2022-11-16T02:32:24.757Z,16.70
2022-11-16T02:35:01.070Z,21.80
2022-11-16T02:37:33.904Z,19.20
2022-11-16T02:40:05.283Z,19.60
2022-11-16T02:42:48.607Z,15.40
2022-11-16T02:45:21.761Z,22.40
2022-11-16T02:47:51.181Z,20.50
2022-11-16T02:50:22.739Z,16.30
2022-11-16T02:52:49.333Z,20.30
2022-11-16T02:55:16.117Z,19.40
2022-11-16T02:57:57.167Z,18.10
2022-11-16T03:00:34.098Z,21.90
2022-11-16T03:03:07.307Z,16.00
2022-11-16T03:05:53.075Z,15.10
2022-11-16T03:08:39.448Z,15.50
2022-11-16T03:11:28.039Z,13.50
2022-11-16T03:14:08.157Z,16.10
2022-11-16T03:16:39.205Z,16.30
2022-11-16T03:19:10.331Z,14.50
2022-11-16T03:21:46.983Z,13.70
2022-11-16T03:24:13.905Z,17.60
2022-11-16T03:27:06.331Z,19.20
2022-11-16T03:29:43.639Z,18.20
2022-11-16T03:32:20.690Z,24.00
2022-11-16T03:34:57.267Z,22.30
2022-11-16T03:37:25.796Z,26.20
2022-11-16T03:39:54.153Z,18.50
2022-11-16T03:42:25.482Z,15.60
2022-11-16T03:44:53.095Z,14.30
2022-11-16T03:47:20.006Z,23.10
2022-11-16T03:49:47.915Z,23.30
2022-11-16T03:52:16.864Z,20.90
2022-11-16T03:54:44.340Z,20.40
2022-11-16T03:57:15.223Z,23.90
2022-11-16T03:59:44.705Z,25.40
2022-11-16T04:02:11.642Z,17.30
2022-11-16T04:04:57.321Z,14.70
2022-11-16T04:07:42.995Z,18.50
2022-11-16T04:10:29.516Z,15.50
2022-11-16T04:13:16.183Z,21.20
2022-11-16T04:16:01.764Z,18.90
2022-11-16T04:18:47.107Z,16.60
2022-11-16T04:21:39.485Z,15.90
2022-11-16T04:24:16.490Z,19.40
2022-11-16T04:27:05.426Z,17.40
2022-11-16T04:29:33.114Z,15.30
2022-11-16T04:32:18.767Z,15.50
2022-11-16T04:35:04.518Z,15.60
2022-11-16T04:37:49.942Z,16.60
2022-11-16T04:40:25.732Z,19.60
2022-11-16T04:42:57.805Z,19.20
2022-11-16T04:45:44.340Z,18.00
2022-11-16T04:48:13.029Z,19.80
2022-11-16T04:50:40.881Z,21.20
2022-11-16T04:53:07.872Z,17.70
2022-11-16T04:55:39.985Z,16.20
2022-11-16T04:58:07.405Z,18.20
2022-11-16T05:00:33.998Z,17.30
2022-11-16T05:03:01.689Z,18.90
2022-11-16T05:05:28.937Z,19.90
2022-11-16T05:07:57.524Z,18.20
2022-11-16T05:10:27.396Z,23.90
2022-11-16T05:12:54.227Z,23.90
2022-11-16T05:15:20.990Z,18.90
2022-11-16T05:17:48.256Z,18.90
2022-11-16T05:20:36.527Z,24.20
2022-11-16T05:23:04.363Z,20.80
2022-11-16T05:25:36.612Z,24.20
2022-11-16T05:28:06.443Z,23.90
2022-11-16T05:30:34.974Z,21.90
2022-11-16T05:33:02.321Z,21.70
2022-11-16T05:35:30.553Z,25.30
2022-11-16T05:37:57.156Z,25.10
2022-11-16T05:40:23.747Z,26.00
2022-11-16T05:42:57.267Z,25.10
2022-11-16T05:45:24.448Z,26.10
2022-11-16T05:47:51.422Z,28.60
2022-11-16T05:50:18.284Z,22.10
2022-11-16T05:52:46.648Z,28.60
2022-11-16T05:55:13.290Z,27.90
2022-11-16T05:57:43.322Z,27.00
2022-11-16T06:00:11.197Z,27.10
2022-11-16T06:02:43.665Z,28.20
2022-11-16T06:08:21.486Z,29.60
2022-11-16T06:10:49.796Z,25.50
2022-11-16T06:13:16.494Z,28.20
2022-11-16T06:15:49.622Z,28.50
2022-11-16T06:18:17.533Z,31.80
2022-11-16T06:20:44.220Z,40.70
2022-11-16T06:23:10.812Z,35.60
2022-11-16T06:25:38.823Z,31.70
2022-11-16T06:28:08.170Z,26.80
2022-11-16T06:30:35.567Z,25.00
2022-11-16T06:33:02.578Z,25.70
2022-11-16T06:35:29.214Z,26.90
2022-11-16T06:37:57.452Z,24.90
2022-11-16T06:40:25.255Z,27.50
2022-11-16T06:42:51.992Z,26.60
2022-11-16T06:45:18.593Z,24.90
2022-11-16T06:47:49.428Z,27.50
2022-11-16T06:50:20.110Z,29.20
2022-11-16T06:52:48.291Z,25.80
2022-11-16T06:55:16.092Z,24.50
2022-11-16T06:57:42.852Z,25.60
2022-11-16T07:00:10.586Z,25.40
2022-11-16T07:02:38.660Z,22.80
2022-11-16T07:05:06.774Z,28.10
2022-11-16T07:07:33.665Z,23.30
2022-11-16T07:10:00.930Z,26.20
2022-11-16T07:12:27.580Z,22.40
2022-11-16T07:14:55.776Z,22.40
2022-11-16T07:17:23.836Z,20.90
2022-11-16T07:19:52.782Z,19.70
2022-11-16T07:22:23.181Z,18.90
2022-11-16T07:24:50.252Z,20.40
2022-11-16T07:27:17.594Z,19.70
2022-11-16T07:29:45.574Z,17.30
2022-11-16T07:32:23.821Z,17.80
2022-11-16T07:35:09.751Z,21.40
2022-11-16T07:37:37.681Z,18.70
2022-11-16T07:40:04.675Z,18.10
2022-11-16T07:42:31.227Z,20.00
2022-11-16T07:45:21.174Z,19.10
2022-11-16T07:47:53.687Z,17.80
2022-11-16T07:50:46.653Z,16.90
2022-11-16T07:53:14.411Z,20.90
2022-11-16T07:55:40.868Z,17.10
2022-11-16T07:58:08.742Z,16.60
2022-11-16T08:00:36.444Z,16.30
2022-11-16T08:03:08.045Z,16.80
2022-11-16T08:05:35.488Z,20.10
2022-11-16T08:08:01.962Z,20.20
2022-11-16T08:10:30.679Z,15.00
2022-11-16T08:12:58.016Z,17.90
2022-11-16T08:15:25.125Z,20.20
2022-11-16T08:17:51.921Z,18.50
2022-11-16T08:20:18.771Z,15.10
2022-11-16T08:22:46.966Z,17.10
2022-11-16T08:25:14.185Z,17.50
2022-11-16T08:27:42.560Z,18.00
2022-11-16T08:30:09.675Z,15.30
2022-11-16T08:32:36.355Z,16.30
2022-11-16T08:35:04.016Z,19.10
2022-11-16T08:40:36.622Z,19.60
2022-11-16T08:43:03.322Z,17.30
2022-11-16T08:45:30.007Z,17.20
2022-11-16T08:48:03.477Z,16.10
2022-11-16T08:50:44.248Z,20.80
2022-11-16T08:53:19.109Z,19.20
2022-11-16T08:55:45.704Z,16.40
2022-11-16T08:58:12.315Z,16.90
2022-11-16T09:00:39.512Z,17.80
2022-11-16T09:03:06.101Z,18.40
2022-11-16T09:05:32.622Z,20.10
2022-11-16T09:07:59.381Z,21.40
2022-11-16T09:10:25.975Z,19.80
2022-11-16T09:12:52.471Z,17.60
2022-11-16T09:15:20.306Z,18.20
2022-11-16T09:17:47.190Z,17.50
2022-11-16T09:20:14.188Z,20.30
2022-11-16T09:22:41.390Z,19.70
2022-11-16T09:25:09.369Z,19.80
2022-11-16T09:27:37.239Z,19.00
2022-11-16T09:30:04.725Z,18.30
2022-11-16T09:32:31.307Z,17.30
2022-11-16T09:34:57.777Z,16.30
2022-11-16T09:37:24.552Z,15.00
2022-11-16T09:39:51.663Z,17.10
2022-11-16T09:42:27.162Z,15.80
2022-11-16T09:45:24.152Z,20.50
2022-11-16T09:47:59.031Z,15.10
2022-11-16T09:50:51.337Z,15.60
2022-11-16T09:53:22.223Z,17.20
2022-11-16T09:55:53.103Z,18.10
2022-11-16T09:58:28.299Z,22.50
2022-11-16T10:01:16.124Z,25.70
2022-11-16T10:03:49.907Z,16.20
2022-11-16T10:06:23.318Z,14.40
2022-11-16T10:08:53.164Z,16.00
2022-11-16T10:11:36.277Z,13.20
2022-11-16T10:14:23.345Z,11.80
2022-11-16T10:17:06.871Z,11.70
2022-11-16T10:19:46.267Z,10.00
2022-11-16T10:22:21.863Z,11.40
2022-11-16T10:24:57.469Z,9.60
2022-11-16T10:27:47.909Z,13.90
2022-11-16T10:30:16.609Z,13.70
2022-11-16T10:32:48.950Z,13.60
2022-11-16T10:35:21.363Z,11.20
2022-11-16T10:37:52.709Z,10.20
2022-11-16T10:40:35.478Z,10.20
2022-11-16T10:43:18.520Z,10.70
2022-11-16T10:46:00.561Z,10.20
2022-11-16T10:48:40.691Z,13.70
2022-11-16T10:51:09.073Z,11.10
2022-11-16T10:53:39.260Z,12.40
2022-11-16T10:56:36.757Z,11.60
2022-11-16T10:59:06.249Z,10.40
2022-11-16T11:01:35.413Z,15.00
2022-11-16T11:04:24.063Z,12.20
2022-11-16T11:06:56.079Z,12.30
2022-11-16T11:09:28.998Z,13.10
2022-11-16T11:12:16.804Z,14.40
2022-11-16T11:15:11.555Z,12.60
2022-11-16T11:17:49.923Z,13.60
2022-11-16T11:20:16.600Z,13.20
2022-11-16T11:22:47.617Z,19.10
2022-11-16T11:25:33.243Z,14.50
2022-11-16T11:28:18.553Z,12.70
2022-11-16T11:31:00.105Z,18.90
2022-11-16T11:33:31.736Z,17.20
2022-11-16T11:36:18.249Z,16.60
2022-11-16T11:39:05.852Z,10.80
2022-11-16T11:41:44.466Z,13.70
2022-11-16T11:44:19.178Z,12.50
2022-11-16T11:47:55.609Z,12.30
2022-11-16T11:50:12.964Z,12.60
2022-11-16T11:52:46.958Z,15.60
2022-11-16T11:55:17.258Z,11.70
2022-11-16T11:57:47.152Z,10.80
2022-11-16T12:00:14.947Z,11.60
2022-11-16T12:02:57.002Z,9.90
2022-11-16T12:05:47.257Z,8.40
2022-11-16T12:08:43.499Z,11.50
2022-11-16T12:11:35.417Z,8.80
2022-11-16T12:14:05.072Z,8.50
2022-11-16T12:16:42.485Z,8.90
2022-11-16T12:19:21.014Z,10.60
2022-11-16T12:21:57.453Z,10.10
2022-11-16T12:24:41.971Z,13.00
2022-11-16T12:27:26.934Z,13.60
2022-11-16T12:30:07.778Z,14.70
2022-11-16T12:32:48.981Z,9.40
2022-11-16T12:35:42.238Z,13.70
2022-11-16T12:38:30.495Z,9.60
2022-11-16T12:41:31.549Z,9.10
2022-11-16T12:44:08.078Z,9.50
2022-11-16T12:46:52.179Z,7.90
2022-11-16T12:49:44.739Z,9.40
2022-11-16T12:52:30.257Z,14.00
2022-11-16T12:55:38.797Z,10.80
2022-11-16T12:58:33.784Z,9.10
2022-11-16T13:01:17.044Z,11.20
2022-11-16T13:03:54.938Z,9.10
2022-11-16T13:06:32.440Z,7.20
2022-11-16T13:09:16.239Z,5.90
2022-11-16T13:11:51.595Z,7.50
2022-11-16T13:14:33.578Z,5.00
2022-11-16T13:17:02.795Z,5.60
2022-11-16T13:19:29.924Z,6.70
2022-11-16T13:22:17.251Z,8.80
2022-11-16T13:24:58.147Z,18.00
2022-11-16T13:27:34.098Z,13.40
2022-11-16T13:30:21.813Z,13.90
2022-11-16T13:32:57.573Z,12.20
2022-11-16T13:35:24.921Z,7.80
2022-11-16T13:37:54.155Z,6.80
2022-11-16T13:40:25.559Z,10.60
2022-11-16T13:43:06.259Z,14.40
2022-11-16T13:45:38.194Z,14.10
2022-11-16T13:48:16.188Z,23.80
2022-11-16T13:50:58.203Z,10.90
2022-11-16T13:56:25.541Z,11.50
2022-11-16T13:58:57.698Z,10.80
2022-11-16T14:01:26.009Z,11.60
2022-11-16T14:04:31.490Z,9.80
2022-11-16T14:06:59.447Z,8.50
2022-11-16T14:09:47.293Z,10.10
2022-11-16T14:12:52.277Z,8.30
2022-11-16T14:15:22.016Z,10.80
2022-11-16T14:17:54.095Z,8.50
2022-11-16T14:20:55.994Z,8.10
2022-11-16T14:23:35.161Z,10.00
2022-11-16T14:26:01.907Z,11.60
2022-11-16T14:28:45.690Z,11.50
2022-11-16T14:31:12.049Z,12.70
2022-11-16T14:33:38.729Z,16.60
2022-11-16T14:36:07.927Z,17.20
2022-11-16T14:38:43.060Z,16.00
2022-11-16T14:41:20.483Z,14.20
2022-11-16T14:43:52.136Z,11.40
2022-11-16T14:46:27.315Z,12.10
2022-11-16T14:48:56.091Z,12.70
2022-11-16T14:51:29.546Z,11.80
2022-11-16T14:54:01.297Z,12.30
2022-11-16T14:56:27.759Z,12.20
2022-11-16T14:58:56.714Z,8.00
2022-11-16T15:01:27.684Z,6.90
2022-11-16T15:04:03.236Z,6.20
2022-11-16T15:06:42.979Z,7.10
2022-11-16T15:09:26.409Z,5.50
2022-11-16T15:12:12.593Z,10.10
2022-11-16T15:15:00.309Z,6.10
2022-11-16T15:17:31.801Z,16.50
2022-11-16T15:20:24.368Z,11.30
2022-11-16T15:22:53.267Z,9.20
2022-11-16T15:25:24.364Z,12.50
2022-11-16T15:27:51.575Z,11.50
2022-11-16T15:30:20.527Z,11.90
2022-11-16T15:32:49.923Z,8.90
2022-11-16T15:35:23.233Z,10.50
2022-11-16T15:38:16.208Z,11.00
2022-11-16T15:40:58.207Z,7.40
2022-11-16T15:43:29.848Z,10.70
2022-11-16T15:45:57.931Z,13.50
2022-11-16T15:48:27.074Z,27.80
2022-11-16T15:51:14.531Z,14.40
2022-11-16T15:53:44.683Z,13.20
2022-11-16T15:56:39.589Z,15.10
2022-11-16T15:59:12.776Z,18.70
2022-11-16T16:01:43.819Z,13.90
2022-11-16T16:04:16.048Z,8.00
2022-11-16T16:06:43.731Z,10.00
2022-11-16T16:09:38.240Z,9.50
2022-11-16T16:12:17.149Z,9.90
2022-11-16T16:14:44.507Z,13.30
2022-11-16T16:17:22.302Z,12.20
2022-11-16T16:19:58.499Z,12.80
2022-11-16T16:22:36.536Z,11.70
2022-11-16T16:25:06.966Z,10.20
2022-11-16T16:27:39.292Z,9.50
2022-11-16T16:30:06.891Z,9.20
2022-11-16T16:32:36.502Z,9.60
2022-11-16T16:35:08.046Z,8.90
2022-11-16T16:37:38.064Z,9.30
2022-11-16T16:40:05.449Z,11.30
2022-11-16T16:42:32.048Z,8.00
2022-11-16T16:44:59.847Z,9.80
2022-11-16T16:47:26.414Z,11.90
2022-11-16T16:49:53.173Z,11.40
2022-11-16T16:52:19.794Z,26.60
2022-11-16T16:54:46.472Z,17.00
2022-11-16T16:57:15.236Z,11.50
2022-11-16T16:59:44.629Z,16.20
2022-11-16T17:02:12.163Z,12.10
2022-11-16T17:04:40.121Z,12.40
2022-11-16T17:07:07.058Z,11.40
2022-11-16T17:09:33.878Z,13.90
2022-11-16T17:12:00.794Z,9.60
2022-11-16T17:14:27.503Z,10.80
2022-11-16T17:16:54.704Z,22.30
2022-11-16T17:19:21.374Z,245.90
2022-11-16T17:21:48.316Z,141.00
2022-11-16T17:24:14.780Z,97.60
2022-11-16T17:26:41.527Z,36.10
2022-11-16T17:29:08.306Z,26.30
2022-11-16T17:31:35.681Z,42.00
2022-11-16T17:34:02.462Z,42.60
2022-11-16T17:36:29.132Z,50.80
2022-11-16T17:38:56.038Z,66.90
2022-11-16T17:41:22.647Z,60.60
2022-11-16T17:43:52.413Z,114.50
2022-11-16T17:46:21.410Z,61.10
2022-11-16T17:48:48.355Z,64.70
2022-11-16T17:51:20.607Z,57.90
2022-11-16T17:53:49.157Z,63.40
2022-11-16T17:56:21.902Z,91.60
2022-11-16T17:58:52.344Z,128.60
2022-11-16T18:01:19.112Z,69.70
2022-11-16T18:03:45.863Z,44.80
2022-11-16T18:06:20.646Z,67.30
2022-11-16T18:08:48.269Z,24.20
2022-11-16T18:11:23.676Z,115.60
2022-11-16T18:14:00.685Z,72.20
2022-11-16T18:16:30.973Z,72.20
2022-11-16T18:19:05.441Z,25.60
2022-11-16T18:21:39.037Z,48.70
2022-11-16T18:24:05.921Z,59.00
2022-11-16T18:26:32.842Z,81.30
2022-11-16T18:28:59.482Z,23.50
2022-11-16T18:31:26.219Z,22.90
2022-11-16T18:33:53.010Z,156.80
2022-11-16T18:36:21.109Z,124.60
2022-11-16T18:38:48.297Z,61.60
2022-11-16T18:41:19.302Z,43.30
2022-11-16T18:43:54.178Z,130.90
2022-11-16T18:46:23.561Z,110.80
2022-11-16T18:48:50.323Z,67.60
2022-11-16T18:51:17.930Z,100.10
2022-11-16T18:53:45.127Z,50.20
2022-11-16T18:56:11.865Z,43.80
2022-11-16T18:58:54.872Z,92.80
2022-11-16T19:01:24.183Z,69.90
2022-11-16T19:03:52.594Z,116.50
2022-11-16T19:06:19.508Z,302.90
2022-11-16T19:08:53.740Z,180.60
2022-11-16T19:11:23.306Z,123.90
2022-11-16T19:14:00.113Z,41.00
2022-11-16T19:16:26.983Z,45.90
2022-11-16T19:18:53.655Z,72.20
2022-11-16T19:21:23.837Z,48.30
2022-11-16T19:23:55.031Z,44.80
2022-11-16T19:26:24.970Z,38.70
2022-11-16T19:28:52.438Z,41.70
2022-11-16T19:31:20.897Z,34.00
2022-11-16T19:33:48.395Z,24.80
2022-11-16T19:36:17.411Z,17.40
2022-11-16T19:38:54.107Z,28.70
2022-11-16T19:41:22.812Z,51.70
2022-11-16T19:43:52.019Z,24.10
2022-11-16T19:46:20.951Z,25.40
2022-11-16T19:48:48.790Z,20.50
2022-11-16T19:51:18.404Z,36.20
2022-11-16T19:53:45.196Z,46.20
2022-11-16T19:56:14.661Z,33.40
2022-11-16T19:58:42.468Z,55.20
2022-11-16T20:01:27.016Z,25.90
2022-11-16T20:03:56.387Z,15.30
2022-11-16T20:06:28.654Z,11.00
2022-11-16T20:09:01.603Z,11.30
2022-11-16T20:11:33.686Z,12.80
2022-11-16T20:14:05.739Z,11.10
2022-11-16T20:16:39.073Z,11.00
2022-11-16T20:19:08.008Z,12.20
2022-11-16T20:21:37.194Z,14.30
2022-11-16T20:24:06.754Z,11.40
2022-11-16T20:26:36.267Z,13.80
2022-11-16T20:29:03.264Z,12.00
2022-11-16T20:31:32.049Z,31.80
2022-11-16T20:34:04.620Z,17.90
2022-11-16T20:36:32.537Z,12.70
2022-11-16T20:39:00.061Z,13.50
2022-11-16T20:41:29.400Z,11.60
2022-11-16T20:44:00.799Z,10.50
2022-11-16T20:46:30.094Z,10.30
2022-11-16T20:48:58.848Z,12.00
2022-11-16T20:51:25.953Z,11.60
2022-11-16T20:53:52.556Z,10.70
2022-11-16T20:56:20.128Z,10.10
2022-11-16T20:58:47.856Z,9.40
2022-11-16T21:01:20.687Z,10.90
2022-11-16T21:03:47.391Z,10.60
2022-11-16T21:06:14.619Z,9.80
2022-11-16T21:08:41.385Z,13.10
2022-11-16T21:11:16.983Z,14.10
2022-11-16T21:14:06.577Z,11.10
2022-11-16T21:16:34.095Z,12.40
2022-11-16T21:19:01.380Z,11.90
2022-11-16T21:21:28.485Z,13.40
2022-11-16T21:23:55.141Z,13.20
2022-11-16T21:26:30.140Z,11.30
2022-11-16T21:28:58.590Z,12.40
2022-11-16T21:31:27.579Z,13.60
2022-11-16T21:33:55.446Z,11.50
2022-11-16T21:36:24.593Z,15.10
2022-11-16T21:38:52.720Z,12.00
2022-11-16T21:41:22.255Z,11.70
2022-11-16T21:43:51.763Z,13.20
2022-11-16T21:46:25.968Z,11.70
2022-11-16T21:48:54.786Z,13.40
2022-11-16T21:51:24.196Z,14.50
2022-11-16T21:53:51.502Z,14.60
2022-11-16T21:56:21.137Z,15.50
2022-11-16T21:58:49.263Z,12.50
2022-11-16T22:01:16.362Z,13.70
2022-11-16T22:03:44.129Z,12.40
2022-11-16T22:06:34.517Z,13.70
2022-11-16T22:09:01.975Z,14.30
2022-11-16T22:11:28.405Z,12.10
2022-11-16T22:13:55.060Z,14.70
2022-11-16T22:16:22.500Z,14.60
2022-11-16T22:18:49.120Z,11.50
2022-11-16T22:21:15.878Z,11.50
2022-11-16T22:23:42.664Z,10.20
2022-11-16T22:26:11.726Z,10.70
2022-11-16T22:28:38.987Z,11.70
2022-11-16T22:31:09.278Z,13.40
2022-11-16T22:33:36.380Z,10.90
2022-11-16T22:36:04.164Z,12.60
2022-11-16T22:38:31.040Z,11.00
2022-11-16T22:40:57.728Z,10.70
2022-11-16T22:43:27.286Z,11.30
2022-11-16T22:46:01.684Z,9.30
2022-11-16T22:48:33.414Z,10.60
2022-11-16T22:51:05.336Z,7.80
2022-11-16T22:53:32.372Z,9.90
2022-11-16T22:56:04.220Z,9.70
2022-11-16T22:58:30.938Z,11.00
2022-11-16T23:00:57.450Z,9.30
2022-11-16T23:03:23.955Z,8.60
2022-11-16T23:05:50.571Z,8.30
2022-11-16T23:08:17.084Z,8.80
2022-11-16T23:11:02.393Z,8.90
2022-11-16T23:13:47.950Z,6.80
2022-11-16T23:16:14.404Z,9.50
2022-11-16T23:18:40.979Z,10.40
2022-11-16T23:21:27.361Z,8.80
2022-11-16T23:24:12.842Z,9.50
2022-11-16T23:26:58.313Z,7.30
2022-11-16T23:29:25.293Z,6.60
2022-11-16T23:31:51.761Z,6.80
2022-11-16T23:34:19.503Z,6.80
2022-11-16T23:36:46.105Z,7.20
2022-11-16T23:39:12.524Z,8.50
2022-11-16T23:41:57.545Z,7.70
2022-11-16T23:44:24.212Z,7.30
2022-11-16T23:46:50.614Z,6.80
2022-11-16T23:49:17.177Z,8.00
2022-11-16T23:51:43.936Z,6.40
2022-11-16T23:54:10.434Z,6.00
2022-11-16T23:56:37.234Z,6.00
2022-11-16T23:59:03.880Z,9.40
